Time;durP1;ratioP1;P1;durP2;ratioP2;P2;SDS_P1;SDS_P2;PMS_P1;PMS_P2;Temp;Humidity;BMP_temperature;BMP_pressure;BME280_temperature;BME280_humidity;BME280_pressure;Samples;Min_cycle;Max_cycle;Signal;HPM_P1;HPM_P2
2023/05/10 00:00:40;;;;;;;2.05;1.02;;;;;;;;;;5061706;28;20045;-80
2023/05/10 00:03:07;;;;;;;2.80;1.10;;;;;;;;;;5060956;28;20045;-81
2023/05/10 00:05:34;;;;;;;3.08;1.20;;;;;;;;;;5060662;28;20049;-81
2023/05/10 00:08:00;;;;;;;2.35;1.10;;;;;;;;;;5058261;28;20079;-80
2023/05/10 00:10:27;;;;;;;3.85;1.35;;;;;;;;;;5058683;28;20140;-80
2023/05/10 00:12:53;;;;;;;3.88;1.40;;;;;;;;;;5058410;28;20083;-80
2023/05/10 00:15:23;;;;;;;5.15;1.48;;;;;;;;;;5057505;28;20041;-80
2023/05/10 00:17:51;;;;;;;2.17;1.13;;;;;;;;;;5056664;28;20055;-80
2023/05/10 00:20:18;;;;;;;1.95;1.15;;;;;;;;;;5056731;28;20324;-81
2023/05/10 00:22:44;;;;;;;2.25;1.20;;;;;;;;;;5056261;28;20136;-80
2023/05/10 00:25:11;;;;;;;2.25;1.13;;;;;;;;;;5055547;28;20127;-81
2023/05/10 00:27:39;;;;;;;2.20;1.40;;;;;;;;;;5055857;28;20080;-81
2023/05/10 00:30:07;;;;;;;2.42;1.20;;;;;;;;;;5057196;28;20061;-80
2023/05/10 00:32:36;;;;;;;2.15;1.10;;;;;;;;;;5057695;28;20059;-80
2023/05/10 00:35:05;;;;;;;2.88;1.65;;;;;;;;;;5057759;28;20048;-80
2023/05/10 00:37:31;;;;;;;2.88;1.38;;;;;;;;;;5057113;28;20080;-80
2023/05/10 00:40:01;;;;;;;2.47;1.70;;;;;;;;;;5057490;28;20434;-80
2023/05/10 00:42:27;;;;;;;2.08;1.10;;;;;;;;;;5056597;28;20109;-80
2023/05/10 00:44:54;;;;;;;1.65;1.00;;;;;;;;;;5055092;28;20073;-79
2023/05/10 00:47:21;;;;;;;1.55;0.90;;;;;;;;;;5057814;28;20138;-82
2023/05/10 00:49:48;;;;;;;1.58;1.00;;;;;;;;;;5057214;28;20048;-79
2023/05/10 00:52:16;;;;;;;1.73;0.90;;;;;;;;;;5058010;28;20079;-79
2023/05/10 00:54:43;;;;;;;2.33;0.93;;;;;;;;;;5054809;28;20045;-79
2023/05/10 00:57:10;;;;;;;1.83;0.85;;;;;;;;;;5069303;28;20104;-80
2023/05/10 00:59:37;;;;;;;1.67;0.80;;;;;;;;;;5071583;28;20052;-80
2023/05/10 01:02:03;;;;;;;1.08;0.80;;;;;;;;;;5055436;28;20515;-80
2023/05/10 01:04:31;;;;;;;1.92;0.85;;;;;;;;;;5055329;28;20132;-79
2023/05/10 01:06:57;;;;;;;1.25;0.73;;;;;;;;;;5059690;28;20601;-80
2023/05/10 01:09:26;;;;;;;1.48;0.90;;;;;;;;;;5059712;28;20049;-83
2023/05/10 01:12:46;;;;;;;3.13;1.10;;;;;;;;;;5060378;28;20048;-80
2023/05/10 01:15:15;;;;;;;1.33;0.70;;;;;;;;;;5055099;28;20114;-82
2023/05/10 01:17:45;;;;;;;2.85;0.90;;;;;;;;;;5054388;28;20040;-81
2023/05/10 01:20:13;;;;;;;1.90;0.90;;;;;;;;;;5060000;28;20135;-83
2023/05/10 01:23:05;;;;;;;2.67;1.02;;;;;;;;;;5076224;28;20128;-81
2023/05/10 01:25:50;;;;;;;1.55;0.90;;;;;;;;;;5075852;28;20485;-82
2023/05/10 01:28:43;;;;;;;1.65;0.82;;;;;;;;;;5074923;28;20041;-82
2023/05/10 01:31:23;;;;;;;1.58;0.70;;;;;;;;;;5075261;28;20058;-81
2023/05/10 01:33:55;;;;;;;1.40;0.70;;;;;;;;;;5074562;28;20135;-81
2023/05/10 01:36:27;;;;;;;1.42;0.80;;;;;;;;;;5074621;28;20045;-82
2023/05/10 01:38:59;;;;;;;1.42;0.68;;;;;;;;;;5074796;28;20100;-81
2023/05/10 01:41:33;;;;;;;2.25;0.80;;;;;;;;;;5074042;28;20099;-81
2023/05/10 01:44:05;;;;;;;2.53;0.80;;;;;;;;;;5074559;28;20054;-81
2023/05/10 01:46:36;;;;;;;1.42;0.80;;;;;;;;;;5074571;28;20479;-81
2023/05/10 01:49:09;;;;;;;1.45;0.70;;;;;;;;;;5087489;28;20509;-81
2023/05/10 01:51:40;;;;;;;1.30;0.60;;;;;;;;;;5076030;28;20072;-81
2023/05/10 01:54:07;;;;;;;1.55;0.70;;;;;;;;;;5075431;28;20612;-81
2023/05/10 01:56:36;;;;;;;1.55;1.17;;;;;;;;;;5074902;28;20629;-81
2023/05/10 01:59:09;;;;;;;1.77;0.75;;;;;;;;;;5076812;28;20070;-80
2023/05/10 02:01:38;;;;;;;1.98;1.20;;;;;;;;;;5075762;28;20051;-81
2023/05/10 02:04:08;;;;;;;1.10;0.70;;;;;;;;;;5075113;28;20051;-80
2023/05/10 02:06:36;;;;;;;2.20;0.77;;;;;;;;;;5075331;28;20052;-81
2023/05/10 02:09:03;;;;;;;1.25;0.70;;;;;;;;;;5075577;28;20049;-81
2023/05/10 02:11:31;;;;;;;1.67;0.60;;;;;;;;;;5075251;28;20045;-81
2023/05/10 02:13:59;;;;;;;1.35;0.63;;;;;;;;;;5075561;28;20041;-81
2023/05/10 02:16:30;;;;;;;2.40;0.70;;;;;;;;;;5075866;28;20649;-81
2023/05/10 02:18:59;;;;;;;2.13;0.80;;;;;;;;;;5089768;28;20044;-81
2023/05/10 02:21:30;;;;;;;1.67;0.80;;;;;;;;;;5073941;28;20465;-82
2023/05/10 02:23:58;;;;;;;2.15;0.90;;;;;;;;;;5073301;28;20087;-81
2023/05/10 02:26:26;;;;;;;2.17;0.70;;;;;;;;;;5073129;28;20119;-81
2023/05/10 02:28:54;;;;;;;2.10;0.80;;;;;;;;;;5073728;28;20040;-81
2023/05/10 02:31:22;;;;;;;3.38;1.10;;;;;;;;;;5074334;28;20041;-81
2023/05/10 02:33:50;;;;;;;2.55;0.88;;;;;;;;;;5077332;28;20353;-81
2023/05/10 02:36:17;;;;;;;1.70;0.80;;;;;;;;;;5076803;28;20052;-80
2023/05/10 02:38:46;;;;;;;1.45;0.82;;;;;;;;;;5089076;28;20058;-80
2023/05/10 02:41:14;;;;;;;1.40;0.73;;;;;;;;;;5089337;28;20041;-80
2023/05/10 02:43:42;;;;;;;1.50;0.80;;;;;;;;;;5083824;28;20127;-80
2023/05/10 02:46:09;;;;;;;1.42;0.90;;;;;;;;;;5077839;28;20057;-81
2023/05/10 02:48:36;;;;;;;1.85;0.70;;;;;;;;;;5077217;28;20104;-81
2023/05/10 02:51:07;;;;;;;1.27;0.70;;;;;;;;;;5076795;28;20048;-81
2023/05/10 02:53:36;;;;;;;2.20;0.70;;;;;;;;;;5077017;28;20055;-81
2023/05/10 02:56:10;;;;;;;1.35;0.60;;;;;;;;;;5076298;28;20052;-81
2023/05/10 02:58:37;;;;;;;1.13;0.70;;;;;;;;;;5076684;28;20049;-81
2023/05/10 03:01:04;;;;;;;1.73;0.60;;;;;;;;;;5076242;28;20060;-81
2023/05/10 03:03:31;;;;;;;0.90;0.60;;;;;;;;;;5058128;28;20129;-81
2023/05/10 03:05:58;;;;;;;0.85;0.52;;;;;;;;;;5055987;28;20088;-80
2023/05/10 03:08:25;;;;;;;2.10;0.70;;;;;;;;;;5055799;28;20059;-81
2023/05/10 03:11:02;;;;;;;1.40;0.65;;;;;;;;;;5055810;28;20721;-81
2023/05/10 03:13:40;;;;;;;1.30;0.70;;;;;;;;;;5055942;28;20490;-80
2023/05/10 03:16:11;;;;;;;1.10;0.70;;;;;;;;;;5055626;28;20051;-81
2023/05/10 03:18:43;;;;;;;0.75;0.50;;;;;;;;;;5055839;28;20407;-80
2023/05/10 03:21:12;;;;;;;0.90;0.70;;;;;;;;;;5056172;28;20045;-82
2023/05/10 03:23:44;;;;;;;1.55;0.75;;;;;;;;;;5069906;28;20083;-80
2023/05/10 03:26:13;;;;;;;1.35;0.68;;;;;;;;;;5057768;28;20434;-81
2023/05/10 03:28:42;;;;;;;2.67;0.70;;;;;;;;;;5057808;28;20056;-81
2023/05/10 03:31:09;;;;;;;1.42;0.52;;;;;;;;;;5057020;28;20051;-80
2023/05/10 03:33:36;;;;;;;1.75;0.70;;;;;;;;;;5057935;28;20595;-81
2023/05/10 03:36:03;;;;;;;0.80;0.68;;;;;;;;;;5057699;28;20049;-82
2023/05/10 03:38:29;;;;;;;0.93;0.60;;;;;;;;;;5058663;28;20495;-82
2023/05/10 03:40:56;;;;;;;2.35;0.70;;;;;;;;;;5058333;28;20052;-82
2023/05/10 03:43:23;;;;;;;1.08;0.60;;;;;;;;;;5059189;28;20103;-82
2023/05/10 03:45:50;;;;;;;1.00;0.60;;;;;;;;;;5058983;28;20148;-82
2023/05/10 03:48:17;;;;;;;0.70;0.50;;;;;;;;;;5058607;28;20060;-81
2023/05/10 03:50:44;;;;;;;1.92;0.98;;;;;;;;;;5058551;28;20045;-81
2023/05/10 03:53:10;;;;;;;1.90;0.55;;;;;;;;;;5062624;28;20053;-81
2023/05/10 03:55:37;;;;;;;1.88;0.70;;;;;;;;;;5065491;28;20075;-81
2023/05/10 03:58:03;;;;;;;1.40;0.70;;;;;;;;;;5062598;28;20048;-82
2023/05/10 04:00:30;;;;;;;1.10;0.63;;;;;;;;;;5060958;28;20041;-81
2023/05/10 04:02:58;;;;;;;1.50;0.70;;;;;;;;;;5068941;28;20045;-82
2023/05/10 04:05:24;;;;;;;1.27;0.75;;;;;;;;;;5076417;28;20056;-81
2023/05/10 04:07:51;;;;;;;0.77;0.50;;;;;;;;;;5075535;28;20051;-82
2023/05/10 04:10:18;;;;;;;1.67;0.70;;;;;;;;;;5075141;28;20040;-81
2023/05/10 04:12:44;;;;;;;1.35;0.70;;;;;;;;;;5075776;28;20054;-81
2023/05/10 04:15:11;;;;;;;2.25;0.80;;;;;;;;;;5075667;28;20041;-81
2023/05/10 04:17:38;;;;;;;1.23;0.60;;;;;;;;;;5075649;28;20127;-81
2023/05/10 04:20:08;;;;;;;1.27;0.63;;;;;;;;;;5075090;28;20104;-81
2023/05/10 04:22:34;;;;;;;1.17;0.70;;;;;;;;;;5074710;28;20059;-81
2023/05/10 04:25:01;;;;;;;0.70;0.50;;;;;;;;;;5074858;28;20613;-81
2023/05/10 04:27:27;;;;;;;1.65;0.70;;;;;;;;;;5075731;28;20048;-81
2023/05/10 04:29:54;;;;;;;1.38;0.60;;;;;;;;;;5090727;28;20032;-81
2023/05/10 04:32:21;;;;;;;1.23;0.60;;;;;;;;;;5095280;28;20033;-81
2023/05/10 04:34:47;;;;;;;1.45;0.70;;;;;;;;;;5094883;28;20037;-81
2023/05/10 04:37:15;;;;;;;1.45;0.60;;;;;;;;;;5079972;28;20045;-81
2023/05/10 04:39:42;;;;;;;1.67;0.77;;;;;;;;;;5078121;28;20517;-81
2023/05/10 04:42:09;;;;;;;1.05;0.60;;;;;;;;;;5076995;28;20136;-81
2023/05/10 04:44:36;;;;;;;1.15;0.60;;;;;;;;;;5075738;28;20049;-81
2023/05/10 04:47:03;;;;;;;0.70;0.60;;;;;;;;;;5076204;28;20076;-82
2023/05/10 04:49:29;;;;;;;1.75;0.50;;;;;;;;;;5075951;28;20048;-81
2023/05/10 04:51:56;;;;;;;1.65;0.70;;;;;;;;;;5076904;28;20083;-82
2023/05/10 04:54:24;;;;;;;0.85;0.47;;;;;;;;;;5075821;28;20132;-81
2023/05/10 04:56:51;;;;;;;1.20;0.57;;;;;;;;;;5074459;28;20048;-81
2023/05/10 04:59:18;;;;;;;0.80;0.70;;;;;;;;;;5075553;28;20045;-81
2023/05/10 05:01:44;;;;;;;1.00;0.50;;;;;;;;;;5073400;28;20104;-80
2023/05/10 05:04:11;;;;;;;2.70;0.57;;;;;;;;;;5059582;28;20554;-80
2023/05/10 05:06:37;;;;;;;2.22;0.60;;;;;;;;;;5058909;28;20057;-80
2023/05/10 05:09:04;;;;;;;2.33;0.80;;;;;;;;;;5058213;28;20041;-80
2023/05/10 05:11:32;;;;;;;1.58;0.90;;;;;;;;;;5056323;28;20068;-79
2023/05/10 05:13:59;;;;;;;0.50;0.40;;;;;;;;;;5057038;28;20087;-80
2023/05/10 05:16:26;;;;;;;0.88;0.40;;;;;;;;;;5058462;28;20049;-80
2023/05/10 05:18:53;;;;;;;1.10;0.50;;;;;;;;;;5059252;28;20045;-80
2023/05/10 05:21:22;;;;;;;1.02;0.60;;;;;;;;;;5059954;28;20056;-80
2023/05/10 05:23:48;;;;;;;1.90;0.60;;;;;;;;;;5057338;28;20049;-80
2023/05/10 05:26:15;;;;;;;1.35;0.68;;;;;;;;;;5058412;28;20085;-78
2023/05/10 05:28:43;;;;;;;0.82;0.50;;;;;;;;;;5056271;28;20132;-78
2023/05/10 05:31:10;;;;;;;0.70;0.50;;;;;;;;;;5056400;28;20076;-78
2023/05/10 05:33:37;;;;;;;3.03;0.90;;;;;;;;;;5060622;28;20132;-79
2023/05/10 05:36:05;;;;;;;3.60;0.70;;;;;;;;;;5067097;28;20067;-80
2023/05/10 05:38:32;;;;;;;2.90;0.80;;;;;;;;;;5077521;28;20045;-79
2023/05/10 05:40:59;;;;;;;2.38;0.80;;;;;;;;;;5081450;28;20735;-80
2023/05/10 05:43:25;;;;;;;1.20;0.50;;;;;;;;;;5087710;28;20087;-79
2023/05/10 05:45:54;;;;;;;2.28;0.77;;;;;;;;;;5080165;28;20052;-80
2023/05/10 05:48:21;;;;;;;1.45;0.90;;;;;;;;;;5077543;28;20158;-79
2023/05/10 05:50:47;;;;;;;2.63;0.80;;;;;;;;;;5122911;22;20044;-67
2023/05/10 05:53:14;;;;;;;1.40;0.80;;;;;;;;;;5090305;28;20040;-66
2023/05/10 05:55:41;;;;;;;2.10;0.90;;;;;;;;;;5089780;28;20105;-65
2023/05/10 05:58:08;;;;;;;1.42;0.60;;;;;;;;;;5090224;28;20075;-66
2023/05/10 06:00:35;;;;;;;1.92;0.90;;;;;;;;;;5089935;28;20545;-66
2023/05/10 06:03:04;;;;;;;1.50;0.75;;;;;;;;;;5089904;28;20044;-66
2023/05/10 06:05:31;;;;;;;1.40;0.70;;;;;;;;;;5091204;28;20101;-66
2023/05/10 06:08:00;;;;;;;1.92;0.95;;;;;;;;;;5094465;28;20461;-64
2023/05/10 06:10:27;;;;;;;3.03;1.20;;;;;;;;;;5094097;28;20523;-67
2023/05/10 06:12:54;;;;;;;1.23;0.77;;;;;;;;;;5094298;28;20835;-66
2023/05/10 06:15:21;;;;;;;1.33;0.60;;;;;;;;;;5094494;28;20055;-67
2023/05/10 06:17:52;;;;;;;1.65;0.85;;;;;;;;;;5094978;28;20040;-68
2023/05/10 06:20:20;;;;;;;1.25;0.82;;;;;;;;;;5094301;28;20048;-68
2023/05/10 06:22:47;;;;;;;2.08;0.80;;;;;;;;;;5093409;28;20048;-66
2023/05/10 06:25:17;;;;;;;1.85;0.70;;;;;;;;;;5093282;28;20052;-67
2023/05/10 06:27:44;;;;;;;1.55;0.70;;;;;;;;;;5093240;28;20052;-67
2023/05/10 06:30:13;;;;;;;1.88;0.90;;;;;;;;;;5093146;28;20044;-68
2023/05/10 06:32:39;;;;;;;1.20;0.82;;;;;;;;;;5093527;28;20059;-68
2023/05/10 06:35:08;;;;;;;2.05;1.10;;;;;;;;;;5093284;28;20048;-67
2023/05/10 06:37:36;;;;;;;1.65;1.08;;;;;;;;;;5092951;28;20055;-68
2023/05/10 06:40:03;;;;;;;3.83;1.10;;;;;;;;;;5092997;28;20055;-67
2023/05/10 06:42:30;;;;;;;2.22;1.00;;;;;;;;;;5092935;28;20048;-68
2023/05/10 06:44:57;;;;;;;2.00;0.90;;;;;;;;;;5092949;28;20048;-66
2023/05/10 06:47:23;;;;;;;3.67;1.20;;;;;;;;;;5093002;28;20500;-67
2023/05/10 06:49:51;;;;;;;2.35;1.20;;;;;;;;;;5093573;28;20530;-66
2023/05/10 06:52:17;;;;;;;2.42;1.00;;;;;;;;;;5093046;28;20051;-66
2023/05/10 06:54:46;;;;;;;1.80;0.90;;;;;;;;;;5092887;28;20079;-67
2023/05/10 06:57:12;;;;;;;2.70;0.82;;;;;;;;;;5092761;28;20051;-66
2023/05/10 06:59:39;;;;;;;1.70;0.90;;;;;;;;;;5092977;28;20055;-67
2023/05/10 07:02:06;;;;;;;2.75;0.80;;;;;;;;;;5092728;28;20051;-67
2023/05/10 07:04:33;;;;;;;1.88;0.85;;;;;;;;;;5092895;28;20056;-66
2023/05/10 07:07:00;;;;;;;1.95;0.90;;;;;;;;;;5092482;28;20361;-67
2023/05/10 07:09:27;;;;;;;1.83;0.90;;;;;;;;;;5093015;28;20078;-66
2023/05/10 07:11:57;;;;;;;2.38;1.00;;;;;;;;;;5093120;28;20055;-67
2023/05/10 07:14:24;;;;;;;3.55;0.93;;;;;;;;;;5093125;28;20051;-66
2023/05/10 07:16:50;;;;;;;1.88;0.80;;;;;;;;;;5091614;28;20036;-66
2023/05/10 07:19:18;;;;;;;2.95;0.90;;;;;;;;;;5092383;28;20044;-66
2023/05/10 07:21:45;;;;;;;1.40;0.85;;;;;;;;;;5092335;28;20052;-67
2023/05/10 07:24:12;;;;;;;2.00;1.17;;;;;;;;;;5092961;28;20097;-65
2023/05/10 07:26:44;;;;;;;2.42;1.00;;;;;;;;;;5092371;28;20040;-67
2023/05/10 07:29:12;;;;;;;2.22;1.00;;;;;;;;;;5109317;28;20277;-66
2023/05/10 07:31:41;;;;;;;1.65;1.08;;;;;;;;;;5112923;28;20117;-68
2023/05/10 07:34:11;;;;;;;1.45;0.90;;;;;;;;;;5112769;28;20082;-67
2023/05/10 07:36:37;;;;;;;4.57;1.10;;;;;;;;;;5112276;28;20108;-66
2023/05/10 07:39:07;;;;;;;1.60;1.00;;;;;;;;;;5113194;28;20047;-66
2023/05/10 07:41:34;;;;;;;2.55;1.10;;;;;;;;;;5112631;28;20043;-67
2023/05/10 07:44:01;;;;;;;1.75;0.88;;;;;;;;;;5112636;28;20442;-67
2023/05/10 07:46:29;;;;;;;1.88;1.10;;;;;;;;;;5112125;28;20051;-67
2023/05/10 07:48:56;;;;;;;1.92;0.95;;;;;;;;;;5111917;28;20093;-67
2023/05/10 07:51:23;;;;;;;2.13;1.00;;;;;;;;;;5111856;28;20047;-68
2023/05/10 07:53:50;;;;;;;3.42;1.17;;;;;;;;;;5111787;28;20464;-68
2023/05/10 07:56:27;;;;;;;1.55;0.90;;;;;;;;;;5112217;28;20484;-67
2023/05/10 07:58:54;;;;;;;2.00;1.10;;;;;;;;;;5112123;28;20048;-67
2023/05/10 08:01:21;;;;;;;1.67;0.90;;;;;;;;;;5112195;28;20472;-68
2023/05/10 08:03:50;;;;;;;2.92;1.00;;;;;;;;;;5111900;28;20069;-68
2023/05/10 08:06:18;;;;;;;2.40;0.90;;;;;;;;;;5112022;28;20086;-67
2023/05/10 08:08:49;;;;;;;2.03;1.08;;;;;;;;;;5101586;28;20078;-68
2023/05/10 08:11:15;;;;;;;;;;;;;;;;;;5092224;28;20048;-67
2023/05/10 08:13:42;;;;;;;2.13;1.00;;;;;;;;;;5091711;28;19973;-68
2023/05/10 08:16:09;;;;;;;1.45;0.90;;;;;;;;;;5091640;28;20492;-68
2023/05/10 08:18:36;;;;;;;2.00;1.05;;;;;;;;;;5091362;28;20095;-66
2023/05/10 08:21:04;;;;;;;1.60;0.90;;;;;;;;;;5091269;28;20108;-67
2023/05/10 08:23:31;;;;;;;1.85;0.80;;;;;;;;;;5091025;28;20048;-67
2023/05/10 08:25:58;;;;;;;1.40;0.80;;;;;;;;;;5091765;28;20055;-69
2023/05/10 08:28:26;;;;;;;1.48;0.90;;;;;;;;;;5090467;28;20082;-67
2023/05/10 08:30:56;;;;;;;2.33;1.00;;;;;;;;;;5109014;28;20150;-67
2023/05/10 08:33:24;;;;;;;4.55;0.82;;;;;;;;;;5111447;28;20047;-67
2023/05/10 08:35:52;;;;;;;1.52;0.70;;;;;;;;;;5111735;28;20047;-67
2023/05/10 08:38:20;;;;;;;1.20;0.70;;;;;;;;;;5111435;28;20416;-65
2023/05/10 08:40:50;;;;;;;2.97;0.90;;;;;;;;;;5111698;28;20515;-66
2023/05/10 08:43:17;;;;;;;1.83;0.80;;;;;;;;;;5111630;28;20577;-66
2023/05/10 08:45:46;;;;;;;2.67;0.80;;;;;;;;;;5111161;28;20039;-69
2023/05/10 08:48:14;;;;;;;1.42;0.80;;;;;;;;;;5111090;28;20512;-67
2023/05/10 08:50:42;;;;;;;3.60;0.68;;;;;;;;;;5110765;28;20050;-67
2023/05/10 08:53:11;;;;;;;2.67;0.80;;;;;;;;;;5090877;28;20044;-65
2023/05/10 08:55:42;;;;;;;1.75;0.77;;;;;;;;;;5091022;28;20051;-67
2023/05/10 08:58:09;;;;;;;1.55;0.90;;;;;;;;;;5090473;28;20420;-66
2023/05/10 09:00:37;;;;;;;2.45;0.90;;;;;;;;;;5090648;28;20097;-66
2023/05/10 09:03:06;;;;;;;2.45;0.80;;;;;;;;;;5090753;28;20075;-66
2023/05/10 09:05:33;;;;;;;1.85;1.05;;;;;;;;;;5090717;28;20131;-66
2023/05/10 09:08:00;;;;;;;1.15;0.80;;;;;;;;;;5090159;28;20079;-67
2023/05/10 09:10:28;;;;;;;1.33;0.80;;;;;;;;;;5090196;28;20044;-67
2023/05/10 09:12:57;;;;;;;2.03;0.80;;;;;;;;;;5090404;28;20044;-66
2023/05/10 09:15:24;;;;;;;2.03;0.80;;;;;;;;;;5090358;28;20521;-65
2023/05/10 09:17:51;;;;;;;1.45;0.90;;;;;;;;;;5090144;28;20067;-67
2023/05/10 09:20:18;;;;;;;1.90;0.95;;;;;;;;;;5090202;28;20489;-66
2023/05/10 09:22:45;;;;;;;1.95;0.80;;;;;;;;;;5090237;28;20044;-66
2023/05/10 09:25:14;;;;;;;1.92;0.88;;;;;;;;;;5090118;28;20135;-68
2023/05/10 09:27:42;;;;;;;2.17;0.80;;;;;;;;;;5090529;28;20086;-67
2023/05/10 09:30:11;;;;;;;1.98;0.82;;;;;;;;;;5090082;28;20056;-65
2023/05/10 09:32:39;;;;;;;3.40;1.10;;;;;;;;;;5089868;28;20047;-65
2023/05/10 09:35:10;;;;;;;1.58;0.90;;;;;;;;;;5089930;28;20040;-66
2023/05/10 09:37:36;;;;;;;1.65;0.82;;;;;;;;;;5090257;28;20283;-66
2023/05/10 09:40:07;;;;;;;1.98;0.90;;;;;;;;;;5089428;28;20056;-66
2023/05/10 09:42:34;;;;;;;2.75;0.90;;;;;;;;;;5090049;28;20142;-66
2023/05/10 09:45:03;;;;;;;1.88;0.90;;;;;;;;;;5089984;28;20124;-65
2023/05/10 09:47:32;;;;;;;1.98;1.00;;;;;;;;;;5090355;28;20610;-64
2023/05/10 09:50:03;;;;;;;1.63;0.90;;;;;;;;;;5089766;28;20062;-66
2023/05/10 09:52:30;;;;;;;2.28;0.80;;;;;;;;;;5089898;28;20138;-66
2023/05/10 09:54:57;;;;;;;1.65;1.05;;;;;;;;;;5089988;28;20440;-67
2023/05/10 09:57:25;;;;;;;2.88;1.00;;;;;;;;;;5090113;28;20068;-67
2023/05/10 09:59:54;;;;;;;1.83;1.00;;;;;;;;;;5089770;28;20048;-66
2023/05/10 10:02:20;;;;;;;1.58;0.93;;;;;;;;;;5089940;28;20478;-66
2023/05/10 10:04:52;;;;;;;2.35;0.80;;;;;;;;;;5090016;28;20553;-66
2023/05/10 10:07:24;;;;;;;3.15;0.90;;;;;;;;;;5090201;28;20381;-67
2023/05/10 10:09:51;;;;;;;1.33;0.70;;;;;;;;;;5089747;28;20048;-66
2023/05/10 10:12:19;;;;;;;2.30;0.85;;;;;;;;;;5089570;28;20052;-65
2023/05/10 10:14:47;;;;;;;1.95;0.80;;;;;;;;;;5089604;28;20051;-66
2023/05/10 10:17:14;;;;;;;2.22;0.85;;;;;;;;;;5089510;28;20098;-65
2023/05/10 10:19:42;;;;;;;0.98;0.65;;;;;;;;;;5089411;28;20044;-64
2023/05/10 10:22:12;;;;;;;1.17;0.60;;;;;;;;;;5089792;28;20477;-71
2023/05/10 10:24:40;;;;;;;1.90;1.00;;;;;;;;;;5089336;28;20048;-68
2023/05/10 10:27:20;;;;;;;2.90;0.90;;;;;;;;;;5089267;28;20146;-66
2023/05/10 10:29:58;;;;;;;2.28;0.80;;;;;;;;;;5091629;28;20040;-67
2023/05/10 10:32:33;;;;;;;2.30;0.70;;;;;;;;;;5103154;28;20476;-69
2023/05/10 10:35:00;;;;;;;1.42;0.75;;;;;;;;;;5089028;28;20050;-66
2023/05/10 10:37:43;;;;;;;1.65;0.80;;;;;;;;;;5088691;28;20078;-66
2023/05/10 10:40:28;;;;;;;2.90;1.10;;;;;;;;;;5089286;28;20048;-66
2023/05/10 10:42:55;;;;;;;4.57;1.23;;;;;;;;;;5089290;28;20412;-68
2023/05/10 10:45:23;;;;;;;3.15;1.15;;;;;;;;;;5089229;28;20048;-66
2023/05/10 10:47:54;;;;;;;5.80;2.40;;;;;;;;;;5088954;28;20048;-66
2023/05/10 10:50:21;;;;;;;3.95;1.20;;;;;;;;;;5088969;28;20398;-66
2023/05/10 10:52:52;;;;;;;4.45;1.63;;;;;;;;;;5090706;28;20044;-65
2023/05/10 10:55:23;;;;;;;4.85;1.63;;;;;;;;;;5092861;28;20083;-68
2023/05/10 10:57:53;;;;;;;3.60;1.83;;;;;;;;;;5093104;28;20349;-66
2023/05/10 11:00:28;;;;;;;6.15;2.88;;;;;;;;;;5092324;28;20052;-65
2023/05/10 11:02:58;;;;;;;5.35;2.25;;;;;;;;;;5105058;28;20048;-66
2023/05/10 11:05:37;;;;;;;3.60;1.20;;;;;;;;;;5113191;28;20515;-66
2023/05/10 11:08:11;;;;;;;3.10;1.08;;;;;;;;;;5113103;28;20113;-66
2023/05/10 11:10:39;;;;;;;2.10;1.00;;;;;;;;;;5112454;28;20454;-66
2023/05/10 11:13:08;;;;;;;1.73;1.00;;;;;;;;;;5112464;28;20100;-66
2023/05/10 11:15:36;;;;;;;1.77;0.85;;;;;;;;;;5112414;28;20043;-66
2023/05/10 11:18:18;;;;;;;1.98;0.80;;;;;;;;;;5112497;28;20047;-66
2023/05/10 11:20:50;;;;;;;3.83;1.00;;;;;;;;;;5112265;28;20155;-65
2023/05/10 11:23:19;;;;;;;2.15;0.82;;;;;;;;;;5112394;28;20048;-66
2023/05/10 11:25:47;;;;;;;2.95;0.82;;;;;;;;;;5112551;28;20459;-65
2023/05/10 11:28:14;;;;;;;4.80;1.73;;;;;;;;;;5112565;28;20052;-68
2023/05/10 11:30:41;;;;;;;2.83;1.20;;;;;;;;;;5112183;28;20054;-66
2023/05/10 11:33:09;;;;;;;3.45;1.17;;;;;;;;;;5112404;28;20055;-66
2023/05/10 11:35:39;;;;;;;2.80;1.40;;;;;;;;;;5112024;28;20044;-65
2023/05/10 11:38:07;;;;;;;4.85;1.58;;;;;;;;;;5111802;28;20093;-65
2023/05/10 11:40:36;;;;;;;3.35;1.80;;;;;;;;;;5111972;28;20131;-66
2023/05/10 11:43:03;;;;;;;3.05;1.50;;;;;;;;;;5112071;28;20097;-65
2023/05/10 11:45:32;;;;;;;3.22;1.73;;;;;;;;;;5111874;28;20054;-65
2023/05/10 11:47:59;;;;;;;3.55;1.80;;;;;;;;;;5111994;28;20048;-65
2023/05/10 11:50:28;;;;;;;4.07;1.95;;;;;;;;;;5111677;28;20044;-66
2023/05/10 11:52:56;;;;;;;3.63;1.85;;;;;;;;;;5111671;28;20048;-66
2023/05/10 11:55:23;;;;;;;3.67;1.80;;;;;;;;;;5111468;28;20101;-66
2023/05/10 11:57:54;;;;;;;3.88;1.63;;;;;;;;;;5111488;28;20047;-66
2023/05/10 12:00:21;;;;;;;3.70;1.50;;;;;;;;;;5111437;28;20130;-66
2023/05/10 12:02:49;;;;;;;5.28;1.67;;;;;;;;;;5099978;28;20055;-66
2023/05/10 12:05:16;;;;;;;2.85;1.13;;;;;;;;;;5091049;28;20045;-66
2023/05/10 12:07:43;;;;;;;2.42;1.08;;;;;;;;;;5091187;28;20055;-66
2023/05/10 12:10:14;;;;;;;3.92;1.23;;;;;;;;;;5091225;28;20400;-66
2023/05/10 12:12:42;;;;;;;3.33;1.30;;;;;;;;;;5091455;28;20409;-66
2023/05/10 12:15:19;;;;;;;3.25;1.25;;;;;;;;;;5091313;28;20131;-66
2023/05/10 12:17:46;;;;;;;4.07;1.27;;;;;;;;;;5090858;28;20135;-65
2023/05/10 12:20:23;;;;;;;2.70;1.33;;;;;;;;;;5091177;28;20253;-65
2023/05/10 12:22:52;;;;;;;3.72;1.52;;;;;;;;;;5092149;28;20397;-67
2023/05/10 12:25:19;;;;;;;3.42;1.75;;;;;;;;;;5090905;28;20127;-64
2023/05/10 12:27:51;;;;;;;2.35;1.30;;;;;;;;;;5090908;28;20056;-65
2023/05/10 12:30:24;;;;;;;2.60;1.58;;;;;;;;;;5090688;28;20058;-65
2023/05/10 12:32:51;;;;;;;3.53;1.70;;;;;;;;;;5091015;28;20048;-65
2023/05/10 12:35:21;;;;;;;3.00;1.50;;;;;;;;;;5104667;28;20158;-65
2023/05/10 12:37:48;;;;;;;3.13;1.63;;;;;;;;;;5111371;28;20054;-66
2023/05/10 12:40:15;;;;;;;3.13;2.05;;;;;;;;;;5110931;28;20659;-65
2023/05/10 12:42:44;;;;;;;4.20;2.00;;;;;;;;;;5110786;28;20051;-66
2023/05/10 12:45:12;;;;;;;4.82;1.80;;;;;;;;;;5111187;28;20496;-65
2023/05/10 12:47:40;;;;;;;3.05;1.60;;;;;;;;;;5110971;28;20104;-66
2023/05/10 12:50:08;;;;;;;2.50;1.15;;;;;;;;;;5110974;28;20058;-66
2023/05/10 12:52:34;;;;;;;2.15;1.00;;;;;;;;;;5110777;28;20118;-66
2023/05/10 12:55:02;;;;;;;1.85;1.10;;;;;;;;;;5110750;28;20043;-66
2023/05/10 12:57:30;;;;;;;2.85;0.95;;;;;;;;;;5110458;28;20051;-66
2023/05/10 12:59:57;;;;;;;1.88;0.73;;;;;;;;;;5110320;28;20050;-68
2023/05/10 13:02:24;;;;;;;1.85;0.70;;;;;;;;;;5102521;28;20043;-67
2023/05/10 13:04:53;;;;;;;1.27;0.57;;;;;;;;;;5090722;28;20439;-66
2023/05/10 13:08:18;;;;;;;1.95;0.88;;;;;;;;;;5144542;27;20734;-66
2023/05/10 13:10:45;;;;;;;1.67;0.90;;;;;;;;;;5129424;28;20046;-69
2023/05/10 13:13:12;;;;;;;3.50;0.90;;;;;;;;;;5128656;27;20125;-69
2023/05/10 13:15:39;;;;;;;2.00;0.80;;;;;;;;;;5128078;27;20051;-69
2023/05/10 13:18:05;;;;;;;2.05;0.70;;;;;;;;;;5128215;27;20116;-68
2023/05/10 13:20:32;;;;;;;2.85;0.88;;;;;;;;;;5127173;27;20047;-69
2023/05/10 13:22:59;;;;;;;1.20;0.60;;;;;;;;;;5107683;28;20055;-67
2023/05/10 13:25:27;;;;;;;2.03;0.70;;;;;;;;;;5108260;28;20071;-69
2023/05/10 13:27:54;;;;;;;0.98;0.60;;;;;;;;;;5107067;28;20093;-68
2023/05/10 13:30:21;;;;;;;1.35;0.70;;;;;;;;;;5107806;28;20055;-70
2023/05/10 13:32:48;;;;;;;2.10;0.95;;;;;;;;;;5107515;28;20055;-70
2023/05/10 13:35:15;;;;;;;2.53;0.90;;;;;;;;;;5107470;28;20101;-69
2023/05/10 13:37:42;;;;;;;2.10;0.93;;;;;;;;;;5107296;28;20051;-69
2023/05/10 13:40:09;;;;;;;1.33;0.80;;;;;;;;;;5107590;28;20048;-69
2023/05/10 13:42:38;;;;;;;4.40;2.03;;;;;;;;;;5107252;28;20048;-70
2023/05/10 13:45:05;;;;;;;2.05;0.90;;;;;;;;;;5106949;28;20044;-70
2023/05/10 13:47:32;;;;;;;3.10;1.00;;;;;;;;;;5106877;28;20113;-70
2023/05/10 13:49:59;;;;;;;3.17;1.15;;;;;;;;;;5106099;28;20093;-70
2023/05/10 13:52:26;;;;;;;3.17;1.10;;;;;;;;;;5107718;28;20052;-69
2023/05/10 13:54:54;;;;;;;2.00;1.30;;;;;;;;;;5107743;28;20125;-68
2023/05/10 13:57:21;;;;;;;3.70;1.50;;;;;;;;;;5107479;28;20501;-67
2023/05/10 13:59:50;;;;;;;3.85;2.25;;;;;;;;;;5107317;28;20047;-66
2023/05/10 14:02:17;;;;;;;4.03;2.08;;;;;;;;;;5114102;28;20047;-66
2023/05/10 14:04:44;;;;;;;5.22;2.20;;;;;;;;;;5127771;27;20054;-66
2023/05/10 14:07:10;;;;;;;3.28;1.98;;;;;;;;;;5127716;27;20054;-66
2023/05/10 14:09:38;;;;;;;3.78;1.98;;;;;;;;;;5128038;27;20492;-65
2023/05/10 14:12:04;;;;;;;3.80;1.95;;;;;;;;;;5128046;27;20469;-67
2023/05/10 14:14:31;;;;;;;4.53;1.88;;;;;;;;;;5127935;27;20100;-67
2023/05/10 14:17:00;;;;;;;4.05;2.13;;;;;;;;;;5127565;27;20047;-67
2023/05/10 14:19:27;;;;;;;3.22;1.50;;;;;;;;;;5115492;27;20048;-66
2023/05/10 14:21:54;;;;;;;3.45;1.80;;;;;;;;;;5113974;27;20130;-65
2023/05/10 14:24:21;;;;;;;3.55;1.42;;;;;;;;;;5113445;28;20040;-66
2023/05/10 14:26:48;;;;;;;4.50;1.85;;;;;;;;;;5113662;27;20052;-65
2023/05/10 14:29:15;;;;;;;3.78;1.50;;;;;;;;;;5114115;28;20039;-65
2023/05/10 14:31:41;;;;;;;3.42;1.30;;;;;;;;;;5113527;28;20039;-66
2023/05/10 14:34:10;;;;;;;2.85;1.23;;;;;;;;;;5113788;28;20104;-65
2023/05/10 14:36:36;;;;;;;2.78;1.20;;;;;;;;;;5113360;28;20469;-66
2023/05/10 14:39:03;;;;;;;2.33;1.13;;;;;;;;;;5113603;28;20044;-65
2023/05/10 14:41:31;;;;;;;1.95;1.00;;;;;;;;;;5113723;28;20528;-66
2023/05/10 14:43:58;;;;;;;3.08;1.38;;;;;;;;;;5114248;28;20581;-65
2023/05/10 14:46:25;;;;;;;2.63;1.17;;;;;;;;;;5114095;28;20112;-65
2023/05/10 14:48:52;;;;;;;3.40;1.30;;;;;;;;;;5113995;28;20411;-65
2023/05/10 14:51:21;;;;;;;2.38;1.08;;;;;;;;;;5113310;28;20056;-64